sensor_id;sensor_type;location;lat;lon;timestamp;P1;durP1;ratioP1;P2;durP2;ratioP2
56667;SDS011;42542;48.360;10.958;2022-11-15T00:00:31;21.45;;;9.43;;
56667;SDS011;42542;48.360;10.958;2022-11-15T00:03:51;20.90;;;9.43;;
56667;SDS011;42542;48.360;10.958;2022-11-15T00:07:11;20.97;;;9.37;;
56667;SDS011;42542;48.360;10.958;2022-11-15T00:10:58;20.65;;;8.55;;
56667;SDS011;42542;48.360;10.958;2022-11-15T00:14:19;18.27;;;8.27;;
56667;SDS011;42542;48.360;10.958;2022-11-15T00:17:39;18.17;;;8.20;;
56667;SDS011;42542;48.360;10.958;2022-11-15T00:21:03;18.35;;;7.97;;
56667;SDS011;42542;48.360;10.958;2022-11-15T00:24:25;19.67;;;8.40;;
56667;SDS011;42542;48.360;10.958;2022-11-15T00:27:45;17.73;;;7.68;;
56667;SDS011;42542;48.360;10.958;2022-11-15T00:31:07;20.40;;;8.27;;
56667;SDS011;42542;48.360;10.958;2022-11-15T00:34:31;17.70;;;8.20;;
56667;SDS011;42542;48.360;10.958;2022-11-15T00:37:51;18.27;;;8.35;;
56667;SDS011;42542;48.360;10.958;2022-11-15T00:41:12;18.43;;;8.10;;
56667;SDS011;42542;48.360;10.958;2022-11-15T00:44:32;19.38;;;8.57;;
56667;SDS011;42542;48.360;10.958;2022-11-15T00:47:52;18.02;;;8.18;;
56667;SDS011;42542;48.360;10.958;2022-11-15T00:51:12;17.88;;;7.90;;
56667;SDS011;42542;48.360;10.958;2022-11-15T00:54:32;18.38;;;8.15;;
56667;SDS011;42542;48.360;10.958;2022-11-15T00:57:52;18.52;;;7.72;;
56667;SDS011;42542;48.360;10.958;2022-11-15T01:01:13;19.38;;;8.30;;
56667;SDS011;42542;48.360;10.958;2022-11-15T01:04:34;18.43;;;8.13;;
56667;SDS011;42542;48.360;10.958;2022-11-15T01:07:54;17.27;;;7.82;;
56667;SDS011;42542;48.360;10.958;2022-11-15T01:11:16;16.33;;;7.78;;
56667;SDS011;42542;48.360;10.958;2022-11-15T01:14:35;15.50;;;7.57;;
56667;SDS011;42542;48.360;10.958;2022-11-15T01:17:55;16.05;;;7.10;;
56667;SDS011;42542;48.360;10.958;2022-11-15T01:21:17;15.80;;;7.10;;
56667;SDS011;42542;48.360;10.958;2022-11-15T01:24:38;16.27;;;6.93;;
56667;SDS011;42542;48.360;10.958;2022-11-15T01:27:58;14.80;;;7.05;;
56667;SDS011;42542;48.360;10.958;2022-11-15T01:31:19;15.85;;;7.30;;
56667;SDS011;42542;48.360;10.958;2022-11-15T01:34:40;16.58;;;7.00;;
56667;SDS011;42542;48.360;10.958;2022-11-15T01:38:00;16.23;;;6.70;;
56667;SDS011;42542;48.360;10.958;2022-11-15T01:41:22;17.50;;;7.45;;
56667;SDS011;42542;48.360;10.958;2022-11-15T01:44:51;18.58;;;6.80;;
56667;SDS011;42542;48.360;10.958;2022-11-15T01:48:14;16.47;;;6.97;;
56667;SDS011;42542;48.360;10.958;2022-11-15T01:51:34;14.05;;;6.82;;
56667;SDS011;42542;48.360;10.958;2022-11-15T01:54:56;15.77;;;7.00;;
56667;SDS011;42542;48.360;10.958;2022-11-15T01:58:21;15.80;;;6.75;;
56667;SDS011;42542;48.360;10.958;2022-11-15T02:01:42;16.40;;;7.13;;
56667;SDS011;42542;48.360;10.958;2022-11-15T02:05:02;15.52;;;6.65;;
56667;SDS011;42542;48.360;10.958;2022-11-15T02:08:23;15.85;;;6.68;;
56667;SDS011;42542;48.360;10.958;2022-11-15T02:11:44;14.07;;;6.30;;
56667;SDS011;42542;48.360;10.958;2022-11-15T02:15:06;13.73;;;6.03;;
56667;SDS011;42542;48.360;10.958;2022-11-15T02:18:31;15.10;;;6.50;;
56667;SDS011;42542;48.360;10.958;2022-11-15T02:29:50;14.82;;;6.55;;
56667;SDS011;42542;48.360;10.958;2022-11-15T02:33:28;14.50;;;6.50;;
56667;SDS011;42542;48.360;10.958;2022-11-15T02:40:38;14.65;;;6.50;;
56667;SDS011;42542;48.360;10.958;2022-11-15T02:44:15;14.57;;;6.32;;
56667;SDS011;42542;48.360;10.958;2022-11-15T02:47:43;13.90;;;6.27;;
56667;SDS011;42542;48.360;10.958;2022-11-15T02:51:06;13.63;;;6.28;;
56667;SDS011;42542;48.360;10.958;2022-11-15T02:54:30;14.43;;;6.30;;
56667;SDS011;42542;48.360;10.958;2022-11-15T02:57:52;14.90;;;6.40;;
56667;SDS011;42542;48.360;10.958;2022-11-15T03:05:14;13.52;;;6.45;;
56667;SDS011;42542;48.360;10.958;2022-11-15T03:12:15;15.18;;;6.63;;
56667;SDS011;42542;48.360;10.958;2022-11-15T03:15:43;15.00;;;6.28;;
56667;SDS011;42542;48.360;10.958;2022-11-15T03:19:12;14.85;;;6.50;;
56667;SDS011;42542;48.360;10.958;2022-11-15T03:22:37;17.23;;;6.97;;
56667;SDS011;42542;48.360;10.958;2022-11-15T03:26:02;14.95;;;6.55;;
56667;SDS011;42542;48.360;10.958;2022-11-15T03:29:29;16.70;;;6.88;;
56667;SDS011;42542;48.360;10.958;2022-11-15T03:32:54;16.27;;;6.70;;
56667;SDS011;42542;48.360;10.958;2022-11-15T03:36:16;15.50;;;6.72;;
56667;SDS011;42542;48.360;10.958;2022-11-15T03:39:38;18.15;;;7.97;;
56667;SDS011;42542;48.360;10.958;2022-11-15T03:43:00;16.23;;;6.78;;
56667;SDS011;42542;48.360;10.958;2022-11-15T03:46:40;18.48;;;6.68;;
56667;SDS011;42542;48.360;10.958;2022-11-15T03:50:07;16.42;;;6.80;;
56667;SDS011;42542;48.360;10.958;2022-11-15T03:53:31;14.98;;;6.40;;
56667;SDS011;42542;48.360;10.958;2022-11-15T03:56:52;14.93;;;6.13;;
56667;SDS011;42542;48.360;10.958;2022-11-15T04:00:13;13.63;;;6.30;;
56667;SDS011;42542;48.360;10.958;2022-11-15T04:03:33;15.32;;;6.85;;
56667;SDS011;42542;48.360;10.958;2022-11-15T04:06:54;14.57;;;6.00;;
56667;SDS011;42542;48.360;10.958;2022-11-15T04:10:14;13.10;;;6.40;;
56667;SDS011;42542;48.360;10.958;2022-11-15T04:13:34;15.35;;;6.22;;
56667;SDS011;42542;48.360;10.958;2022-11-15T04:16:55;14.43;;;6.43;;
56667;SDS011;42542;48.360;10.958;2022-11-15T04:20:36;14.55;;;6.13;;
56667;SDS011;42542;48.360;10.958;2022-11-15T04:24:14;17.13;;;6.10;;
56667;SDS011;42542;48.360;10.958;2022-11-15T04:27:34;16.30;;;6.80;;
56667;SDS011;42542;48.360;10.958;2022-11-15T04:30:54;13.50;;;5.83;;
56667;SDS011;42542;48.360;10.958;2022-11-15T04:34:14;13.30;;;5.82;;
56667;SDS011;42542;48.360;10.958;2022-11-15T04:37:34;14.40;;;6.20;;
56667;SDS011;42542;48.360;10.958;2022-11-15T04:40:54;12.97;;;5.93;;
56667;SDS011;42542;48.360;10.958;2022-11-15T04:44:14;15.93;;;6.30;;
56667;SDS011;42542;48.360;10.958;2022-11-15T04:47:36;14.32;;;5.80;;
56667;SDS011;42542;48.360;10.958;2022-11-15T04:50:56;15.18;;;6.28;;
56667;SDS011;42542;48.360;10.958;2022-11-15T04:54:16;15.57;;;6.07;;
56667;SDS011;42542;48.360;10.958;2022-11-15T04:57:37;13.80;;;5.93;;
56667;SDS011;42542;48.360;10.958;2022-11-15T05:00:57;14.25;;;6.25;;
56667;SDS011;42542;48.360;10.958;2022-11-15T05:04:17;12.67;;;5.60;;
56667;SDS011;42542;48.360;10.958;2022-11-15T05:07:40;13.68;;;6.00;;
56667;SDS011;42542;48.360;10.958;2022-11-15T05:11:00;14.32;;;5.88;;
56667;SDS011;42542;48.360;10.958;2022-11-15T05:14:20;14.13;;;6.20;;
56667;SDS011;42542;48.360;10.958;2022-11-15T05:17:41;13.50;;;5.95;;
56667;SDS011;42542;48.360;10.958;2022-11-15T05:21:04;14.90;;;6.63;;
56667;SDS011;42542;48.360;10.958;2022-11-15T05:24:26;14.52;;;6.40;;
56667;SDS011;42542;48.360;10.958;2022-11-15T05:27:46;16.48;;;7.18;;
56667;SDS011;42542;48.360;10.958;2022-11-15T05:31:08;14.32;;;6.03;;
56667;SDS011;42542;48.360;10.958;2022-11-15T05:34:29;14.98;;;6.63;;
56667;SDS011;42542;48.360;10.958;2022-11-15T05:37:50;14.37;;;6.63;;
56667;SDS011;42542;48.360;10.958;2022-11-15T05:41:10;14.35;;;6.45;;
56667;SDS011;42542;48.360;10.958;2022-11-15T05:44:31;14.70;;;6.55;;
56667;SDS011;42542;48.360;10.958;2022-11-15T05:47:53;15.13;;;6.67;;
56667;SDS011;42542;48.360;10.958;2022-11-15T05:51:15;15.88;;;7.10;;
56667;SDS011;42542;48.360;10.958;2022-11-15T05:54:38;17.27;;;7.63;;
56667;SDS011;42542;48.360;10.958;2022-11-15T05:57:59;18.85;;;8.57;;
56667;SDS011;42542;48.360;10.958;2022-11-15T06:01:20;19.67;;;7.90;;
56667;SDS011;42542;48.360;10.958;2022-11-15T06:04:41;18.42;;;7.97;;
56667;SDS011;42542;48.360;10.958;2022-11-15T06:08:01;15.23;;;7.22;;
56667;SDS011;42542;48.360;10.958;2022-11-15T06:11:21;18.07;;;7.77;;
56667;SDS011;42542;48.360;10.958;2022-11-15T06:14:42;15.80;;;6.93;;
56667;SDS011;42542;48.360;10.958;2022-11-15T06:18:02;14.40;;;6.25;;
56667;SDS011;42542;48.360;10.958;2022-11-15T06:21:22;15.20;;;6.97;;
56667;SDS011;42542;48.360;10.958;2022-11-15T06:24:43;16.42;;;6.53;;
56667;SDS011;42542;48.360;10.958;2022-11-15T06:28:03;15.38;;;7.30;;
56667;SDS011;42542;48.360;10.958;2022-11-15T06:31:23;17.92;;;7.20;;
56667;SDS011;42542;48.360;10.958;2022-11-15T06:34:44;17.58;;;7.15;;
56667;SDS011;42542;48.360;10.958;2022-11-15T06:38:05;15.70;;;6.75;;
56667;SDS011;42542;48.360;10.958;2022-11-15T06:41:26;15.38;;;7.22;;
56667;SDS011;42542;48.360;10.958;2022-11-15T06:44:47;17.83;;;8.20;;
56667;SDS011;42542;48.360;10.958;2022-11-15T06:48:07;18.05;;;8.18;;
56667;SDS011;42542;48.360;10.958;2022-11-15T06:51:27;18.50;;;8.60;;
56667;SDS011;42542;48.360;10.958;2022-11-15T06:54:47;17.93;;;8.47;;
56667;SDS011;42542;48.360;10.958;2022-11-15T06:58:07;21.45;;;8.68;;
56667;SDS011;42542;48.360;10.958;2022-11-15T07:01:27;19.10;;;8.75;;
56667;SDS011;42542;48.360;10.958;2022-11-15T07:04:47;22.23;;;9.85;;
56667;SDS011;42542;48.360;10.958;2022-11-15T07:08:07;26.42;;;11.00;;
56667;SDS011;42542;48.360;10.958;2022-11-15T07:11:27;24.75;;;10.10;;
56667;SDS011;42542;48.360;10.958;2022-11-15T07:14:47;22.48;;;9.57;;
56667;SDS011;42542;48.360;10.958;2022-11-15T07:18:07;22.63;;;9.97;;
56667;SDS011;42542;48.360;10.958;2022-11-15T07:21:28;19.83;;;9.13;;
56667;SDS011;42542;48.360;10.958;2022-11-15T07:24:48;19.52;;;9.07;;
56667;SDS011;42542;48.360;10.958;2022-11-15T07:28:08;19.30;;;8.50;;
56667;SDS011;42542;48.360;10.958;2022-11-15T07:31:29;23.00;;;10.00;;
56667;SDS011;42542;48.360;10.958;2022-11-15T07:34:49;24.88;;;10.25;;
56667;SDS011;42542;48.360;10.958;2022-11-15T07:38:09;22.38;;;9.57;;
56667;SDS011;42542;48.360;10.958;2022-11-15T07:41:29;22.10;;;9.85;;
56667;SDS011;42542;48.360;10.958;2022-11-15T07:44:49;22.02;;;10.50;;
56667;SDS011;42542;48.360;10.958;2022-11-15T07:48:09;23.92;;;10.00;;
56667;SDS011;42542;48.360;10.958;2022-11-15T07:51:30;18.43;;;8.67;;
56667;SDS011;42542;48.360;10.958;2022-11-15T07:54:50;18.45;;;8.23;;
56667;SDS011;42542;48.360;10.958;2022-11-15T07:58:10;17.40;;;7.60;;
56667;SDS011;42542;48.360;10.958;2022-11-15T08:01:31;17.03;;;7.63;;
56667;SDS011;42542;48.360;10.958;2022-11-15T08:04:52;20.40;;;9.20;;
56667;SDS011;42542;48.360;10.958;2022-11-15T08:08:11;19.58;;;9.40;;
56667;SDS011;42542;48.360;10.958;2022-11-15T08:11:32;25.67;;;9.73;;
56667;SDS011;42542;48.360;10.958;2022-11-15T08:14:52;22.40;;;9.95;;
56667;SDS011;42542;48.360;10.958;2022-11-15T08:18:14;18.80;;;8.85;;
56667;SDS011;42542;48.360;10.958;2022-11-15T08:21:35;18.00;;;8.43;;
56667;SDS011;42542;48.360;10.958;2022-11-15T08:24:57;17.73;;;8.30;;
56667;SDS011;42542;48.360;10.958;2022-11-15T08:28:17;18.80;;;8.52;;
56667;SDS011;42542;48.360;10.958;2022-11-15T08:31:37;20.45;;;9.10;;
56667;SDS011;42542;48.360;10.958;2022-11-15T08:34:58;20.33;;;8.40;;
56667;SDS011;42542;48.360;10.958;2022-11-15T08:38:18;16.67;;;8.30;;
56667;SDS011;42542;48.360;10.958;2022-11-15T08:41:38;19.20;;;8.70;;
56667;SDS011;42542;48.360;10.958;2022-11-15T08:44:58;18.67;;;8.85;;
56667;SDS011;42542;48.360;10.958;2022-11-15T08:48:19;19.48;;;9.45;;
56667;SDS011;42542;48.360;10.958;2022-11-15T08:51:39;20.38;;;9.10;;
56667;SDS011;42542;48.360;10.958;2022-11-15T08:54:59;19.63;;;7.80;;
56667;SDS011;42542;48.360;10.958;2022-11-15T08:58:20;15.43;;;7.23;;
56667;SDS011;42542;48.360;10.958;2022-11-15T09:01:40;17.40;;;7.53;;
56667;SDS011;42542;48.360;10.958;2022-11-15T09:05:00;16.63;;;7.35;;
56667;SDS011;42542;48.360;10.958;2022-11-15T09:08:20;17.70;;;7.00;;
56667;SDS011;42542;48.360;10.958;2022-11-15T09:12:01;16.23;;;7.38;;
56667;SDS011;42542;48.360;10.958;2022-11-15T09:15:22;16.40;;;7.47;;
56667;SDS011;42542;48.360;10.958;2022-11-15T09:18:42;14.95;;;6.75;;
56667;SDS011;42542;48.360;10.958;2022-11-15T09:22:05;14.07;;;6.72;;
56667;SDS011;42542;48.360;10.958;2022-11-15T09:25:26;16.20;;;6.93;;
56667;SDS011;42542;48.360;10.958;2022-11-15T09:28:46;17.88;;;7.45;;
56667;SDS011;42542;48.360;10.958;2022-11-15T09:32:07;15.23;;;6.70;;
56667;SDS011;42542;48.360;10.958;2022-11-15T09:35:27;16.40;;;7.32;;
56667;SDS011;42542;48.360;10.958;2022-11-15T09:38:47;14.15;;;6.50;;
56667;SDS011;42542;48.360;10.958;2022-11-15T09:42:20;13.07;;;6.13;;
56667;SDS011;42542;48.360;10.958;2022-11-15T09:46:44;11.32;;;5.32;;
56667;SDS011;42542;48.360;10.958;2022-11-15T09:50:17;14.95;;;5.22;;
56667;SDS011;42542;48.360;10.958;2022-11-15T09:53:34;12.85;;;5.50;;
56667;SDS011;42542;48.360;10.958;2022-11-15T09:57:06;11.40;;;4.80;;
56667;SDS011;42542;48.360;10.958;2022-11-15T10:00:19;11.98;;;5.05;;
56667;SDS011;42542;48.360;10.958;2022-11-15T10:03:44;12.25;;;4.97;;
56667;SDS011;42542;48.360;10.958;2022-11-15T10:06:49;11.40;;;5.30;;
56667;SDS011;42542;48.360;10.958;2022-11-15T10:13:36;11.02;;;4.82;;
56667;SDS011;42542;48.360;10.958;2022-11-15T10:16:51;12.53;;;5.60;;
56667;SDS011;42542;48.360;10.958;2022-11-15T10:23:10;11.43;;;5.47;;
56667;SDS011;42542;48.360;10.958;2022-11-15T10:26:15;11.23;;;5.28;;
56667;SDS011;42542;48.360;10.958;2022-11-15T10:29:21;10.95;;;4.90;;
56667;SDS011;42542;48.360;10.958;2022-11-15T10:32:27;11.70;;;5.10;;
56667;SDS011;42542;48.360;10.958;2022-11-15T10:35:29;10.02;;;4.70;;
56667;SDS011;42542;48.360;10.958;2022-11-15T10:38:31;12.77;;;5.33;;
56667;SDS011;42542;48.360;10.958;2022-11-15T10:41:35;13.93;;;4.90;;
56667;SDS011;42542;48.360;10.958;2022-11-15T10:44:41;10.32;;;4.70;;
56667;SDS011;42542;48.360;10.958;2022-11-15T10:47:44;12.67;;;5.13;;
56667;SDS011;42542;48.360;10.958;2022-11-15T10:50:46;11.25;;;4.60;;
56667;SDS011;42542;48.360;10.958;2022-11-15T10:53:49;12.43;;;4.50;;
56667;SDS011;42542;48.360;10.958;2022-11-15T10:56:53;10.35;;;4.43;;
56667;SDS011;42542;48.360;10.958;2022-11-15T10:59:58;11.20;;;4.50;;
56667;SDS011;42542;48.360;10.958;2022-11-15T11:03:03;9.15;;;3.97;;
56667;SDS011;42542;48.360;10.958;2022-11-15T11:06:11;11.25;;;4.10;;
56667;SDS011;42542;48.360;10.958;2022-11-15T11:12:33;8.93;;;3.92;;
56667;SDS011;42542;48.360;10.958;2022-11-15T11:15:35;10.68;;;3.60;;
56667;SDS011;42542;48.360;10.958;2022-11-15T11:19:02;10.00;;;3.70;;
56667;SDS011;42542;48.360;10.958;2022-11-15T11:25:38;9.68;;;4.10;;
56667;SDS011;42542;48.360;10.958;2022-11-15T11:28:56;8.77;;;3.83;;
56667;SDS011;42542;48.360;10.958;2022-11-15T11:32:15;10.43;;;3.90;;
56667;SDS011;42542;48.360;10.958;2022-11-15T11:35:50;9.93;;;4.07;;
56667;SDS011;42542;48.360;10.958;2022-11-15T11:39:00;9.75;;;4.10;;
56667;SDS011;42542;48.360;10.958;2022-11-15T11:45:47;9.75;;;3.67;;
56667;SDS011;42542;48.360;10.958;2022-11-15T11:49:16;9.00;;;3.60;;
56667;SDS011;42542;48.360;10.958;2022-11-15T11:52:33;10.37;;;4.30;;
56667;SDS011;42542;48.360;10.958;2022-11-15T11:55:45;11.10;;;4.50;;
56667;SDS011;42542;48.360;10.958;2022-11-15T11:58:51;9.82;;;4.50;;
56667;SDS011;42542;48.360;10.958;2022-11-15T12:01:54;8.90;;;4.20;;
56667;SDS011;42542;48.360;10.958;2022-11-15T12:05:04;10.25;;;4.40;;
56667;SDS011;42542;48.360;10.958;2022-11-15T12:14:55;10.97;;;4.40;;
56667;SDS011;42542;48.360;10.958;2022-11-15T12:24:55;10.00;;;4.13;;
56667;SDS011;42542;48.360;10.958;2022-11-15T12:28:15;9.07;;;3.85;;
56667;SDS011;42542;48.360;10.958;2022-11-15T12:31:41;9.15;;;4.10;;
56667;SDS011;42542;48.360;10.958;2022-11-15T12:34:47;8.93;;;4.03;;
56667;SDS011;42542;48.360;10.958;2022-11-15T12:37:52;8.65;;;3.92;;
56667;SDS011;42542;48.360;10.958;2022-11-15T12:41:12;8.57;;;3.80;;
56667;SDS011;42542;48.360;10.958;2022-11-15T12:47:33;10.23;;;4.03;;
56667;SDS011;42542;48.360;10.958;2022-11-15T12:53:55;9.38;;;4.03;;
56667;SDS011;42542;48.360;10.958;2022-11-15T13:03:22;9.27;;;4.00;;
56667;SDS011;42542;48.360;10.958;2022-11-15T13:06:33;8.38;;;4.03;;
56667;SDS011;42542;48.360;10.958;2022-11-15T13:09:50;8.20;;;3.70;;
56667;SDS011;42542;48.360;10.958;2022-11-15T13:12:54;9.35;;;4.07;;
56667;SDS011;42542;48.360;10.958;2022-11-15T13:16:00;8.57;;;3.80;;
56667;SDS011;42542;48.360;10.958;2022-11-15T13:26:12;8.63;;;3.75;;
56667;SDS011;42542;48.360;10.958;2022-11-15T13:29:18;9.77;;;3.95;;
56667;SDS011;42542;48.360;10.958;2022-11-15T13:32:21;8.57;;;3.72;;
56667;SDS011;42542;48.360;10.958;2022-11-15T13:35:24;9.73;;;3.75;;
56667;SDS011;42542;48.360;10.958;2022-11-15T13:38:29;9.45;;;3.72;;
56667;SDS011;42542;48.360;10.958;2022-11-15T13:41:34;8.33;;;3.60;;
56667;SDS011;42542;48.360;10.958;2022-11-15T13:44:37;12.05;;;5.38;;
56667;SDS011;42542;48.360;10.958;2022-11-15T13:47:38;9.00;;;4.03;;
56667;SDS011;42542;48.360;10.958;2022-11-15T13:50:40;7.97;;;3.63;;
56667;SDS011;42542;48.360;10.958;2022-11-15T13:53:43;9.70;;;3.70;;
56667;SDS011;42542;48.360;10.958;2022-11-15T13:56:53;8.85;;;4.07;;
56667;SDS011;42542;48.360;10.958;2022-11-15T14:00:06;7.85;;;3.75;;
56667;SDS011;42542;48.360;10.958;2022-11-15T14:03:26;11.27;;;4.75;;
56667;SDS011;42542;48.360;10.958;2022-11-15T14:06:31;9.57;;;4.50;;
56667;SDS011;42542;48.360;10.958;2022-11-15T14:09:37;10.77;;;4.65;;
56667;SDS011;42542;48.360;10.958;2022-11-15T14:12:49;9.85;;;4.30;;
56667;SDS011;42542;48.360;10.958;2022-11-15T14:15:52;10.57;;;4.40;;
56667;SDS011;42542;48.360;10.958;2022-11-15T14:18:53;10.37;;;4.67;;
56667;SDS011;42542;48.360;10.958;2022-11-15T14:22:11;10.00;;;4.43;;
56667;SDS011;42542;48.360;10.958;2022-11-15T14:25:28;12.02;;;5.00;;
56667;SDS011;42542;48.360;10.958;2022-11-15T14:28:32;11.30;;;4.90;;
56667;SDS011;42542;48.360;10.958;2022-11-15T14:31:37;13.13;;;5.35;;
56667;SDS011;42542;48.360;10.958;2022-11-15T14:34:44;12.02;;;5.75;;
56667;SDS011;42542;48.360;10.958;2022-11-15T14:37:46;16.60;;;6.50;;
56667;SDS011;42542;48.360;10.958;2022-11-15T14:40:48;18.10;;;6.95;;
56667;SDS011;42542;48.360;10.958;2022-11-15T14:43:50;25.05;;;11.15;;
56667;SDS011;42542;48.360;10.958;2022-11-15T14:46:53;16.27;;;7.53;;
56667;SDS011;42542;48.360;10.958;2022-11-15T14:49:54;15.63;;;6.70;;
56667;SDS011;42542;48.360;10.958;2022-11-15T14:52:56;14.68;;;6.70;;
56667;SDS011;42542;48.360;10.958;2022-11-15T14:55:58;19.02;;;8.52;;
56667;SDS011;42542;48.360;10.958;2022-11-15T14:58:59;16.33;;;7.97;;
56667;SDS011;42542;48.360;10.958;2022-11-15T15:02:01;16.77;;;7.90;;
56667;SDS011;42542;48.360;10.958;2022-11-15T15:05:16;16.45;;;7.97;;
56667;SDS011;42542;48.360;10.958;2022-11-15T15:08:32;15.82;;;7.55;;
56667;SDS011;42542;48.360;10.958;2022-11-15T15:11:34;15.33;;;7.73;;
56667;SDS011;42542;48.360;10.958;2022-11-15T15:14:36;20.15;;;8.55;;
56667;SDS011;42542;48.360;10.958;2022-11-15T15:17:37;19.25;;;8.68;;
56667;SDS011;42542;48.360;10.958;2022-11-15T15:20:39;19.40;;;8.05;;
56667;SDS011;42542;48.360;10.958;2022-11-15T15:23:43;16.92;;;7.90;;
56667;SDS011;42542;48.360;10.958;2022-11-15T15:26:44;18.10;;;7.95;;
56667;SDS011;42542;48.360;10.958;2022-11-15T15:29:46;16.65;;;7.00;;
56667;SDS011;42542;48.360;10.958;2022-11-15T15:32:47;16.10;;;7.13;;
56667;SDS011;42542;48.360;10.958;2022-11-15T15:35:49;18.05;;;7.32;;
56667;SDS011;42542;48.360;10.958;2022-11-15T15:38:50;14.82;;;7.03;;
56667;SDS011;42542;48.360;10.958;2022-11-15T15:41:53;13.32;;;5.97;;
56667;SDS011;42542;48.360;10.958;2022-11-15T15:44:57;13.68;;;5.93;;
56667;SDS011;42542;48.360;10.958;2022-11-15T15:47:59;14.88;;;6.45;;
56667;SDS011;42542;48.360;10.958;2022-11-15T15:51:00;13.77;;;6.05;;
56667;SDS011;42542;48.360;10.958;2022-11-15T15:54:11;14.70;;;6.23;;
56667;SDS011;42542;48.360;10.958;2022-11-15T15:57:13;12.93;;;5.85;;
56667;SDS011;42542;48.360;10.958;2022-11-15T16:00:15;15.02;;;6.63;;
56667;SDS011;42542;48.360;10.958;2022-11-15T16:03:17;16.07;;;6.57;;
56667;SDS011;42542;48.360;10.958;2022-11-15T16:06:36;17.70;;;7.70;;
56667;SDS011;42542;48.360;10.958;2022-11-15T16:09:40;23.60;;;9.30;;
56667;SDS011;42542;48.360;10.958;2022-11-15T16:13:00;19.05;;;8.38;;
56667;SDS011;42542;48.360;10.958;2022-11-15T16:16:02;22.92;;;8.52;;
56667;SDS011;42542;48.360;10.958;2022-11-15T16:19:03;19.58;;;8.15;;
56667;SDS011;42542;48.360;10.958;2022-11-15T16:22:05;17.27;;;8.52;;
56667;SDS011;42542;48.360;10.958;2022-11-15T16:25:07;17.67;;;7.60;;
56667;SDS011;42542;48.360;10.958;2022-11-15T16:28:28;16.83;;;7.50;;
56667;SDS011;42542;48.360;10.958;2022-11-15T16:31:32;17.45;;;7.65;;
56667;SDS011;42542;48.360;10.958;2022-11-15T16:34:34;16.40;;;7.70;;
56667;SDS011;42542;48.360;10.958;2022-11-15T16:37:42;15.05;;;7.25;;
56667;SDS011;42542;48.360;10.958;2022-11-15T16:40:46;17.83;;;7.97;;
56667;SDS011;42542;48.360;10.958;2022-11-15T16:43:48;18.58;;;8.05;;
56667;SDS011;42542;48.360;10.958;2022-11-15T16:46:50;18.40;;;7.63;;
56667;SDS011;42542;48.360;10.958;2022-11-15T16:49:54;18.52;;;8.18;;
56667;SDS011;42542;48.360;10.958;2022-11-15T16:52:57;18.02;;;8.07;;
56667;SDS011;42542;48.360;10.958;2022-11-15T16:55:59;17.53;;;7.77;;
56667;SDS011;42542;48.360;10.958;2022-11-15T16:59:00;23.55;;;10.40;;
56667;SDS011;42542;48.360;10.958;2022-11-15T17:02:02;23.95;;;10.93;;
56667;SDS011;42542;48.360;10.958;2022-11-15T17:05:04;26.63;;;11.87;;
56667;SDS011;42542;48.360;10.958;2022-11-15T17:08:12;25.63;;;12.73;;
56667;SDS011;42542;48.360;10.958;2022-11-15T17:11:14;25.33;;;11.48;;
56667;SDS011;42542;48.360;10.958;2022-11-15T17:14:17;28.67;;;12.25;;
56667;SDS011;42542;48.360;10.958;2022-11-15T17:17:19;27.27;;;12.48;;
56667;SDS011;42542;48.360;10.958;2022-11-15T17:20:22;28.13;;;12.75;;
56667;SDS011;42542;48.360;10.958;2022-11-15T17:23:25;27.27;;;13.13;;
56667;SDS011;42542;48.360;10.958;2022-11-15T17:26:27;30.47;;;14.47;;
56667;SDS011;42542;48.360;10.958;2022-11-15T17:29:31;30.90;;;14.20;;
56667;SDS011;42542;48.360;10.958;2022-11-15T17:32:34;29.77;;;13.98;;
56667;SDS011;42542;48.360;10.958;2022-11-15T17:35:37;28.77;;;13.27;;
56667;SDS011;42542;48.360;10.958;2022-11-15T17:38:42;28.63;;;12.10;;
56667;SDS011;42542;48.360;10.958;2022-11-15T17:41:43;25.13;;;10.32;;
56667;SDS011;42542;48.360;10.958;2022-11-15T17:44:45;21.20;;;10.13;;
56667;SDS011;42542;48.360;10.958;2022-11-15T17:47:47;25.58;;;10.20;;
56667;SDS011;42542;48.360;10.958;2022-11-15T17:51:01;22.50;;;9.88;;
56667;SDS011;42542;48.360;10.958;2022-11-15T17:54:05;22.08;;;9.95;;
56667;SDS011;42542;48.360;10.958;2022-11-15T17:57:07;22.00;;;9.87;;
56667;SDS011;42542;48.360;10.958;2022-11-15T18:00:09;25.27;;;10.68;;
56667;SDS011;42542;48.360;10.958;2022-11-15T18:03:11;23.75;;;11.68;;
56667;SDS011;42542;48.360;10.958;2022-11-15T18:06:13;30.83;;;14.23;;
56667;SDS011;42542;48.360;10.958;2022-11-15T18:09:15;36.47;;;16.25;;
56667;SDS011;42542;48.360;10.958;2022-11-15T18:12:17;40.80;;;16.95;;
56667;SDS011;42542;48.360;10.958;2022-11-15T18:15:19;41.50;;;17.50;;
56667;SDS011;42542;48.360;10.958;2022-11-15T18:18:21;38.40;;;16.30;;
56667;SDS011;42542;48.360;10.958;2022-11-15T18:21:24;33.90;;;13.77;;
56667;SDS011;42542;48.360;10.958;2022-11-15T18:24:30;30.27;;;13.55;;
56667;SDS011;42542;48.360;10.958;2022-11-15T18:27:34;29.13;;;14.60;;
56667;SDS011;42542;48.360;10.958;2022-11-15T18:30:37;26.63;;;13.32;;
56667;SDS011;42542;48.360;10.958;2022-11-15T18:33:38;34.33;;;14.40;;
56667;SDS011;42542;48.360;10.958;2022-11-15T18:36:40;41.10;;;19.10;;
56667;SDS011;42542;48.360;10.958;2022-11-15T18:39:43;37.90;;;17.83;;
56667;SDS011;42542;48.360;10.958;2022-11-15T18:42:46;29.63;;;13.68;;
56667;SDS011;42542;48.360;10.958;2022-11-15T18:45:48;27.85;;;13.38;;
56667;SDS011;42542;48.360;10.958;2022-11-15T18:48:50;31.13;;;15.82;;
56667;SDS011;42542;48.360;10.958;2022-11-15T18:51:52;34.20;;;17.40;;
56667;SDS011;42542;48.360;10.958;2022-11-15T18:54:54;43.67;;;20.98;;
56667;SDS011;42542;48.360;10.958;2022-11-15T18:57:55;48.70;;;22.40;;
56667;SDS011;42542;48.360;10.958;2022-11-15T19:01:04;33.28;;;17.70;;
56667;SDS011;42542;48.360;10.958;2022-11-15T19:04:07;42.08;;;19.55;;
56667;SDS011;42542;48.360;10.958;2022-11-15T19:07:13;31.20;;;15.57;;
56667;SDS011;42542;48.360;10.958;2022-11-15T19:10:15;37.10;;;18.38;;
56667;SDS011;42542;48.360;10.958;2022-11-15T19:13:16;33.67;;;16.23;;
56667;SDS011;42542;48.360;10.958;2022-11-15T19:16:18;27.15;;;13.15;;
56667;SDS011;42542;48.360;10.958;2022-11-15T19:19:21;24.50;;;11.73;;
56667;SDS011;42542;48.360;10.958;2022-11-15T19:22:24;25.40;;;11.50;;
56667;SDS011;42542;48.360;10.958;2022-11-15T19:25:26;23.95;;;11.65;;
56667;SDS011;42542;48.360;10.958;2022-11-15T19:28:29;24.23;;;11.60;;
56667;SDS011;42542;48.360;10.958;2022-11-15T19:31:31;25.00;;;11.85;;
56667;SDS011;42542;48.360;10.958;2022-11-15T19:34:33;24.25;;;11.65;;
56667;SDS011;42542;48.360;10.958;2022-11-15T19:37:34;24.07;;;11.10;;
56667;SDS011;42542;48.360;10.958;2022-11-15T19:40:36;24.52;;;11.80;;
56667;SDS011;42542;48.360;10.958;2022-11-15T19:43:38;23.50;;;11.95;;
56667;SDS011;42542;48.360;10.958;2022-11-15T19:46:40;25.13;;;11.35;;
56667;SDS011;42542;48.360;10.958;2022-11-15T19:49:42;23.05;;;12.00;;
56667;SDS011;42542;48.360;10.958;2022-11-15T19:52:44;23.27;;;11.60;;
56667;SDS011;42542;48.360;10.958;2022-11-15T19:55:52;27.45;;;13.45;;
56667;SDS011;42542;48.360;10.958;2022-11-15T19:58:57;39.93;;;18.50;;
56667;SDS011;42542;48.360;10.958;2022-11-15T20:01:59;53.22;;;23.77;;